createdAt,value
2017-09-11T00:00:11.939Z,0
2017-09-11T00:00:52.503Z,0
2017-09-11T00:01:33.101Z,0
2017-09-11T00:02:13.677Z,0
2017-09-11T00:02:54.244Z,0
2017-09-11T00:03:34.818Z,0
2017-09-11T00:04:15.393Z,0
2017-09-11T00:04:55.977Z,0
2017-09-11T00:05:36.532Z,0
2017-09-11T00:06:17.111Z,0
2017-09-11T00:06:57.666Z,0
2017-09-11T00:07:38.241Z,0
2017-09-11T00:08:18.791Z,0
2017-09-11T00:08:59.350Z,0
2017-09-11T00:09:39.913Z,0
2017-09-11T00:10:20.508Z,0
2017-09-11T00:11:01.081Z,0
2017-09-11T00:11:41.684Z,0
2017-09-11T00:12:22.251Z,0
2017-09-11T00:13:02.824Z,0
2017-09-11T00:13:43.419Z,0
2017-09-11T00:14:23.983Z,0
2017-09-11T00:15:04.564Z,0
2017-09-11T00:15:45.128Z,0
2017-09-11T00:16:25.704Z,0
2017-09-11T00:17:06.270Z,0
2017-09-11T00:17:46.849Z,0
2017-09-11T00:18:34.646Z,0
2017-09-11T00:19:15.244Z,0
2017-09-11T00:19:55.805Z,0
2017-09-11T00:20:36.382Z,0
2017-09-11T00:21:16.933Z,0
2017-09-11T00:21:57.494Z,0
2017-09-11T00:22:38.061Z,0
2017-09-11T00:23:18.623Z,0
2017-09-11T00:23:59.252Z,0
2017-09-11T00:24:39.766Z,0
2017-09-11T00:25:20.321Z,0
2017-09-11T00:26:00.890Z,0
2017-09-11T00:26:41.460Z,0
2017-09-11T00:27:22.028Z,0
2017-09-11T00:28:02.609Z,0
2017-09-11T00:28:43.188Z,0
2017-09-11T00:29:23.787Z,0
2017-09-11T00:30:04.392Z,0
2017-09-11T00:30:44.993Z,0
2017-09-11T00:31:25.552Z,0
2017-09-11T00:32:06.105Z,0
2017-09-11T00:32:46.683Z,0
2017-09-11T00:33:27.273Z,0
2017-09-11T00:34:07.853Z,0
2017-09-11T00:34:48.429Z,0
2017-09-11T00:35:29.042Z,0
2017-09-11T00:36:09.600Z,0
2017-09-11T00:36:50.176Z,0
2017-09-11T00:37:30.778Z,0
2017-09-11T00:38:11.335Z,0
2017-09-11T00:38:51.906Z,0
2017-09-11T00:39:32.476Z,0
2017-09-11T00:40:13.043Z,0
2017-09-11T00:40:53.604Z,0
2017-09-11T00:41:34.172Z,0
2017-09-11T00:42:14.755Z,0
2017-09-11T00:42:55.308Z,0
2017-09-11T00:43:35.863Z,0
2017-09-11T00:44:16.434Z,0
2017-09-11T00:44:57.007Z,0
2017-09-11T00:45:37.565Z,0
2017-09-11T00:46:18.126Z,0
2017-09-11T00:46:58.730Z,0
2017-09-11T00:47:39.279Z,0
2017-09-11T00:48:19.841Z,0
2017-09-11T00:49:00.411Z,0
2017-09-11T00:49:40.985Z,0
2017-09-11T00:50:21.560Z,0
2017-09-11T00:51:02.148Z,0
2017-09-11T00:51:42.719Z,0
2017-09-11T00:52:23.291Z,0
2017-09-11T00:53:03.849Z,0
2017-09-11T00:53:44.436Z,0
2017-09-11T00:54:25.018Z,0
2017-09-11T00:55:05.600Z,0
2017-09-11T00:55:46.156Z,0
2017-09-11T00:56:26.724Z,0
2017-09-11T00:57:07.286Z,0
2017-09-11T00:57:47.849Z,0
2017-09-11T00:58:28.404Z,0
2017-09-11T00:59:08.967Z,0
2017-09-11T00:59:49.521Z,0
2017-09-11T01:00:30.087Z,0
2017-09-11T01:01:10.640Z,0
2017-09-11T01:01:51.207Z,0
2017-09-11T01:02:31.773Z,0
2017-09-11T01:03:12.346Z,0
2017-09-11T01:03:52.918Z,0
2017-09-11T01:04:33.496Z,0
2017-09-11T01:05:14.054Z,0
2017-09-11T01:05:54.639Z,0
2017-09-11T01:06:35.240Z,0
2017-09-11T01:07:15.819Z,0
2017-09-11T01:07:56.384Z,0
2017-09-11T01:08:36.950Z,0
2017-09-11T01:09:17.512Z,0
2017-09-11T01:09:58.072Z,0
2017-09-11T01:10:38.698Z,0
2017-09-11T01:11:19.267Z,0
2017-09-11T01:11:59.845Z,0
2017-09-11T01:12:40.411Z,0
2017-09-11T01:13:20.971Z,0
2017-09-11T01:14:01.543Z,0
2017-09-11T01:14:42.110Z,0
2017-09-11T01:15:22.748Z,0
2017-09-11T01:16:03.296Z,0
2017-09-11T01:16:43.860Z,0
2017-09-11T01:17:24.426Z,0
2017-09-11T01:18:04.988Z,0
2017-09-11T01:18:45.565Z,0
2017-09-11T01:19:26.127Z,0
2017-09-11T01:20:06.727Z,0
2017-09-11T01:20:47.287Z,0
2017-09-11T01:21:27.857Z,0
2017-09-11T01:22:08.412Z,0
2017-09-11T01:22:48.989Z,0
2017-09-11T01:23:29.566Z,0
2017-09-11T01:24:10.130Z,0
2017-09-11T01:24:50.705Z,0
2017-09-11T01:25:31.289Z,0
2017-09-11T01:26:11.857Z,0
2017-09-11T01:26:52.427Z,0
2017-09-11T01:27:32.994Z,0
2017-09-11T01:28:13.566Z,0
2017-09-11T01:28:54.130Z,0
2017-09-11T01:29:34.690Z,0
2017-09-11T01:30:15.250Z,0
2017-09-11T01:30:55.845Z,0
2017-09-11T01:31:36.393Z,0
2017-09-11T01:32:16.953Z,0
2017-09-11T01:32:57.512Z,0
2017-09-11T01:33:38.109Z,0
2017-09-11T01:34:18.670Z,0
2017-09-11T01:34:59.259Z,0
2017-09-11T01:35:39.817Z,0
2017-09-11T01:36:20.376Z,0
2017-09-11T01:37:00.991Z,0
2017-09-11T01:37:41.549Z,0
2017-09-11T01:38:22.117Z,0
2017-09-11T01:39:02.687Z,0
2017-09-11T01:39:43.264Z,0
2017-09-11T01:40:23.830Z,0
2017-09-11T01:41:04.400Z,0
2017-09-11T01:41:44.959Z,0
2017-09-11T01:42:25.515Z,0
2017-09-11T01:43:06.071Z,0
2017-09-11T01:43:46.637Z,0
2017-09-11T01:44:27.201Z,0
2017-09-11T01:45:07.799Z,0
2017-09-11T01:45:48.364Z,0
2017-09-11T01:46:28.930Z,0
2017-09-11T01:47:09.504Z,0
2017-09-11T01:47:50.076Z,0
2017-09-11T01:48:30.659Z,0
2017-09-11T01:49:11.240Z,0
2017-09-11T01:49:51.811Z,0
2017-09-11T01:50:32.362Z,0
2017-09-11T01:51:12.936Z,0
2017-09-11T01:51:53.513Z,0
2017-09-11T01:52:34.087Z,0
2017-09-11T01:53:14.668Z,0
2017-09-11T01:53:55.250Z,0
2017-09-11T01:54:35.807Z,0
2017-09-11T01:55:16.387Z,0
2017-09-11T01:55:56.955Z,0
2017-09-11T01:56:37.523Z,0
2017-09-11T01:57:18.090Z,0
2017-09-11T01:57:58.664Z,0
2017-09-11T01:58:39.236Z,0
2017-09-11T01:59:19.796Z,0
2017-09-11T02:00:00.381Z,0
2017-09-11T02:00:40.949Z,0
2017-09-11T02:01:21.504Z,0
2017-09-11T02:02:02.065Z,0
2017-09-11T02:02:42.637Z,0
2017-09-11T02:03:23.200Z,0
2017-09-11T02:04:03.781Z,0
2017-09-11T02:04:44.374Z,0
2017-09-11T02:05:24.948Z,0
2017-09-11T02:06:05.508Z,0
2017-09-11T02:06:46.084Z,0
2017-09-11T02:07:26.653Z,0
2017-09-11T02:08:07.227Z,0
2017-09-11T02:08:47.814Z,0
2017-09-11T02:09:28.374Z,0
2017-09-11T02:10:08.961Z,0
2017-09-11T02:10:49.530Z,0
2017-09-11T02:11:30.104Z,0
2017-09-11T02:12:10.680Z,0
2017-09-11T02:12:51.258Z,0
2017-09-11T02:13:31.817Z,0
2017-09-11T02:14:12.387Z,0
2017-09-11T02:14:52.954Z,0
2017-09-11T02:15:33.513Z,0
2017-09-11T02:16:14.065Z,0
2017-09-11T02:16:54.631Z,0
2017-09-11T02:17:35.206Z,0
2017-09-11T02:18:15.785Z,0
2017-09-11T02:18:56.362Z,0
2017-09-11T02:19:36.921Z,0
2017-09-11T02:20:17.493Z,0
2017-09-11T02:20:58.087Z,0
2017-09-11T02:21:38.656Z,0
2017-09-11T02:22:19.220Z,0
2017-09-11T02:22:59.787Z,0
2017-09-11T02:23:40.351Z,0
2017-09-11T02:24:20.930Z,0
2017-09-11T02:25:01.514Z,0
2017-09-11T02:25:42.060Z,0
2017-09-11T02:26:22.627Z,0
2017-09-11T02:27:03.203Z,0
2017-09-11T02:27:43.777Z,0
2017-09-11T02:28:24.393Z,0
2017-09-11T02:29:04.995Z,0
2017-09-11T02:29:45.572Z,0
2017-09-11T02:30:26.132Z,0
2017-09-11T02:31:06.710Z,0
2017-09-11T02:31:47.272Z,0
2017-09-11T02:32:27.834Z,0
2017-09-11T02:33:08.429Z,0
2017-09-11T02:33:48.997Z,0
2017-09-11T02:34:29.574Z,0
2017-09-11T02:35:10.134Z,0
2017-09-11T02:35:50.689Z,0
2017-09-11T02:36:31.251Z,0
2017-09-11T02:37:11.831Z,0
2017-09-11T02:37:52.411Z,0
2017-09-11T02:38:33.002Z,0
2017-09-11T02:39:13.579Z,0
2017-09-11T02:39:54.145Z,0
2017-09-11T02:40:34.712Z,0
2017-09-11T02:41:15.279Z,0
2017-09-11T02:41:55.833Z,0
2017-09-11T02:42:36.455Z,0
2017-09-11T02:43:16.997Z,0
2017-09-11T02:43:57.565Z,0
2017-09-11T02:44:38.124Z,0
2017-09-11T02:45:18.687Z,0
2017-09-11T02:45:59.269Z,0
2017-09-11T02:46:39.852Z,0
2017-09-11T02:47:20.423Z,0
2017-09-11T02:48:00.979Z,0
2017-09-11T02:48:41.554Z,0
2017-09-11T02:49:22.121Z,0
2017-09-11T02:50:02.683Z,0
2017-09-11T02:50:43.234Z,0
2017-09-11T02:51:23.809Z,0
2017-09-11T02:52:04.380Z,0
2017-09-11T02:52:44.984Z,0
2017-09-11T02:53:25.550Z,0
2017-09-11T02:54:06.098Z,0
2017-09-11T02:54:46.690Z,0
2017-09-11T02:55:27.254Z,0
2017-09-11T02:56:07.855Z,0
2017-09-11T02:56:48.420Z,0
2017-09-11T02:57:28.996Z,0
2017-09-11T02:58:09.563Z,0
2017-09-11T02:58:50.139Z,0
2017-09-11T02:59:30.713Z,0
2017-09-11T03:00:11.295Z,0
2017-09-11T03:00:51.868Z,0
2017-09-11T03:01:32.448Z,0
2017-09-11T03:02:13.055Z,0
2017-09-11T03:02:53.624Z,0
2017-09-11T03:03:34.184Z,0
2017-09-11T03:04:14.748Z,0
2017-09-11T03:04:55.317Z,0
2017-09-11T03:05:35.892Z,0
2017-09-11T03:06:16.458Z,0
2017-09-11T03:06:57.037Z,0
2017-09-11T03:07:37.605Z,0
2017-09-11T03:08:18.182Z,0
2017-09-11T03:08:58.749Z,0
2017-09-11T03:09:39.308Z,0
2017-09-11T03:10:19.920Z,0
2017-09-11T03:11:00.474Z,0
2017-09-11T03:11:41.050Z,0
2017-09-11T03:12:21.613Z,0
2017-09-11T03:13:05.381Z,0
2017-09-11T03:13:45.976Z,0
2017-09-11T03:14:26.560Z,0
2017-09-11T03:15:07.153Z,0
2017-09-11T03:15:47.790Z,0
2017-09-11T03:16:28.354Z,0
2017-09-11T03:17:08.912Z,0
2017-09-11T03:17:49.488Z,0
2017-09-11T03:18:30.050Z,0
2017-09-11T03:19:10.608Z,0
2017-09-11T03:19:51.196Z,0
2017-09-11T03:20:31.782Z,0
2017-09-11T03:21:12.355Z,0
2017-09-11T03:21:52.925Z,0
2017-09-11T03:22:33.556Z,0
2017-09-11T03:23:14.198Z,0
2017-09-11T03:23:54.759Z,0
2017-09-11T03:24:35.332Z,0
2017-09-11T03:25:15.962Z,0
2017-09-11T03:25:56.561Z,0
2017-09-11T03:26:37.129Z,0
2017-09-11T03:27:17.719Z,0
2017-09-11T03:27:58.280Z,0
2017-09-11T03:28:38.861Z,0
2017-09-11T03:29:19.470Z,0
2017-09-11T03:31:57.799Z,0
2017-09-11T03:32:38.350Z,0
2017-09-11T03:33:18.928Z,0
2017-09-11T03:33:59.494Z,0
2017-09-11T03:34:40.070Z,0
2017-09-11T03:35:20.659Z,0
2017-09-11T03:36:01.223Z,0
2017-09-11T03:36:41.780Z,0
2017-09-11T03:37:22.347Z,0
2017-09-11T03:38:02.920Z,0
2017-09-11T03:38:43.526Z,0
2017-09-11T03:39:24.104Z,0
2017-09-11T03:40:04.678Z,0
2017-09-11T03:40:45.246Z,0
2017-09-11T03:41:25.824Z,0
2017-09-11T03:42:06.383Z,0
2017-09-11T03:42:46.941Z,0
2017-09-11T03:43:27.495Z,0
2017-09-11T03:44:08.058Z,0
2017-09-11T03:44:48.619Z,0
2017-09-11T03:45:29.170Z,0
2017-09-11T03:46:09.719Z,0
2017-09-11T03:46:50.347Z,0
2017-09-11T03:47:30.882Z,0
2017-09-11T03:48:11.451Z,0
2017-09-11T03:48:52.013Z,0
2017-09-11T03:49:32.577Z,0
2017-09-11T03:50:13.150Z,0
2017-09-11T03:50:53.728Z,0
2017-09-11T03:51:34.276Z,0
2017-09-11T03:52:14.838Z,0
2017-09-11T03:52:55.404Z,0
2017-09-11T03:53:35.978Z,0
2017-09-11T03:54:16.540Z,0
2017-09-11T03:54:57.097Z,0
2017-09-11T03:55:37.657Z,0
2017-09-11T03:56:18.233Z,0
2017-09-11T03:56:58.796Z,0
2017-09-11T03:57:39.341Z,0
2017-09-11T03:58:19.905Z,0
2017-09-11T03:59:00.499Z,0
2017-09-11T03:59:41.043Z,0
2017-09-11T04:00:21.612Z,0
2017-09-11T04:01:02.180Z,0
2017-09-11T04:01:42.755Z,0
2017-09-11T04:02:23.324Z,0
2017-09-11T04:03:03.890Z,0
2017-09-11T04:03:44.446Z,0
2017-09-11T04:04:25.014Z,0
2017-09-11T04:05:05.608Z,0
2017-09-11T04:05:46.172Z,0
2017-09-11T04:06:26.743Z,0
2017-09-11T04:07:07.305Z,0
2017-09-11T04:07:47.863Z,0
2017-09-11T04:08:28.420Z,0
2017-09-11T04:09:08.993Z,0
2017-09-11T04:09:49.568Z,0
2017-09-11T04:10:30.129Z,0
2017-09-11T04:11:10.694Z,0
2017-09-11T04:11:51.272Z,0
2017-09-11T04:12:31.864Z,0
2017-09-11T04:13:12.438Z,0
2017-09-11T04:13:53.008Z,0
2017-09-11T04:14:33.587Z,0
2017-09-11T04:15:14.179Z,0
2017-09-11T04:15:54.729Z,0
2017-09-11T04:16:35.298Z,0
2017-09-11T04:17:15.889Z,0
2017-09-11T04:17:56.474Z,0
2017-09-11T04:18:37.042Z,0
2017-09-11T04:19:17.657Z,0
2017-09-11T04:19:58.238Z,0
2017-09-11T04:20:38.800Z,0
2017-09-11T04:21:19.377Z,0
2017-09-11T04:21:59.921Z,0
2017-09-11T04:22:40.487Z,0
2017-09-11T04:23:21.063Z,0
2017-09-11T04:24:01.636Z,0
2017-09-11T04:24:42.202Z,0
2017-09-11T04:25:22.756Z,0
2017-09-11T04:26:03.324Z,0
2017-09-11T04:26:43.877Z,0
2017-09-11T04:27:24.437Z,0
2017-09-11T04:28:04.990Z,0
2017-09-11T04:28:45.541Z,0
2017-09-11T04:29:26.109Z,0
2017-09-11T04:30:06.666Z,0
2017-09-11T04:30:47.258Z,0
2017-09-11T04:31:27.830Z,0
2017-09-11T04:32:08.423Z,0
2017-09-11T04:32:48.984Z,5
2017-09-11T04:33:29.562Z,5
2017-09-11T04:34:10.320Z,5
2017-09-11T04:34:50.937Z,5
2017-09-11T04:35:31.492Z,5
2017-09-11T04:36:12.071Z,5
2017-09-11T04:36:52.640Z,5
2017-09-11T04:37:33.206Z,5
2017-09-11T04:38:13.792Z,5
2017-09-11T04:38:54.362Z,5
2017-09-11T04:39:34.931Z,5
2017-09-11T04:40:15.495Z,5
2017-09-11T04:40:56.067Z,10
2017-09-11T04:41:36.626Z,10
2017-09-11T04:42:17.196Z,10
2017-09-11T04:42:57.796Z,10
2017-09-11T04:43:38.350Z,10
2017-09-11T04:44:18.907Z,10
2017-09-11T04:44:59.473Z,10
2017-09-11T04:45:40.063Z,10
2017-09-11T04:46:20.626Z,10
2017-09-11T04:47:01.211Z,10
2017-09-11T04:47:41.786Z,10
2017-09-11T04:48:22.352Z,15
2017-09-11T04:49:02.941Z,15
2017-09-11T04:49:43.499Z,15
2017-09-11T04:50:24.054Z,15
2017-09-11T04:51:04.614Z,15
2017-09-11T04:51:45.180Z,15
2017-09-11T04:52:25.763Z,15
2017-09-11T04:53:06.364Z,15
2017-09-11T04:53:46.921Z,15
2017-09-11T04:54:27.484Z,15
2017-09-11T04:55:08.086Z,20
2017-09-11T04:55:48.964Z,20
2017-09-11T04:56:29.650Z,20
2017-09-11T04:57:10.226Z,20
2017-09-11T04:57:50.856Z,20
2017-09-11T04:58:31.486Z,20
2017-09-11T04:59:12.102Z,20
2017-09-11T04:59:52.669Z,20
2017-09-11T05:00:33.243Z,20
2017-09-11T05:01:13.828Z,20
2017-09-11T05:01:54.403Z,20
2017-09-11T05:02:35.032Z,20
2017-09-11T05:03:15.546Z,25
2017-09-11T05:03:56.112Z,25
2017-09-11T05:04:36.682Z,25
2017-09-11T05:05:17.262Z,25
2017-09-11T05:05:57.856Z,25
2017-09-11T05:06:38.418Z,25
2017-09-11T05:07:18.973Z,25
2017-09-11T05:07:59.548Z,25
2017-09-11T05:08:40.144Z,25
2017-09-11T05:09:20.712Z,25
2017-09-11T05:10:01.291Z,25
2017-09-11T05:10:41.855Z,25
2017-09-11T05:11:22.418Z,30
2017-09-11T05:12:03.156Z,30
2017-09-11T05:12:43.731Z,30
2017-09-11T05:13:24.297Z,30
2017-09-11T05:14:05.036Z,30
2017-09-11T05:14:45.693Z,30
2017-09-11T05:15:26.251Z,30
2017-09-11T05:16:06.841Z,30
2017-09-11T05:16:47.400Z,30
2017-09-11T05:17:27.960Z,35
2017-09-11T05:18:08.526Z,35
2017-09-11T05:18:49.086Z,35
2017-09-11T05:19:29.669Z,35
2017-09-11T05:20:10.245Z,35
2017-09-11T05:20:50.799Z,35
2017-09-11T05:21:31.377Z,35
2017-09-11T05:22:11.939Z,35
2017-09-11T05:22:52.503Z,35
2017-09-11T05:23:33.111Z,40
2017-09-11T05:24:13.690Z,40
2017-09-11T05:24:54.288Z,40
2017-09-11T05:25:34.858Z,40
2017-09-11T05:26:15.431Z,40
2017-09-11T05:26:55.994Z,40
2017-09-11T05:27:36.638Z,40
2017-09-11T05:28:17.233Z,45
2017-09-11T05:28:57.801Z,45
2017-09-11T05:29:38.366Z,45
2017-09-11T05:30:18.925Z,45
2017-09-11T05:30:59.513Z,45
2017-09-11T05:31:40.082Z,50
2017-09-11T05:32:20.666Z,50
2017-09-11T05:33:01.282Z,50
2017-09-11T05:33:41.831Z,50
2017-09-11T05:34:22.480Z,50
2017-09-11T05:35:03.013Z,50
2017-09-11T05:35:43.636Z,50
2017-09-11T05:36:24.194Z,50
2017-09-11T05:37:04.773Z,55
2017-09-11T05:37:45.388Z,55
2017-09-11T05:38:25.966Z,55
2017-09-11T05:39:06.582Z,55
2017-09-11T05:39:47.161Z,60
2017-09-11T05:40:27.706Z,60
2017-09-11T05:41:08.253Z,60
2017-09-11T05:41:48.832Z,60
2017-09-11T05:42:29.398Z,60
2017-09-11T05:43:09.963Z,60
2017-09-11T05:43:50.532Z,65
2017-09-11T05:44:31.087Z,65
2017-09-11T05:45:11.677Z,65
2017-09-11T05:45:52.239Z,65
2017-09-11T05:46:32.836Z,65
2017-09-11T05:47:13.390Z,65
2017-09-11T05:47:53.986Z,65
2017-09-11T05:48:34.573Z,65
2017-09-11T05:49:15.133Z,65
2017-09-11T05:49:55.718Z,65
2017-09-11T05:50:36.294Z,65
2017-09-11T05:51:16.862Z,65
2017-09-11T05:51:57.442Z,65
2017-09-11T05:52:37.980Z,70
2017-09-11T05:53:18.541Z,70
2017-09-11T05:53:59.113Z,70
2017-09-11T05:54:39.699Z,75
2017-09-11T05:55:20.255Z,75
2017-09-11T05:56:00.828Z,75
2017-09-11T05:56:41.398Z,75
2017-09-11T05:57:21.966Z,80
2017-09-11T05:58:02.546Z,80
2017-09-11T05:58:43.113Z,80
2017-09-11T05:59:23.704Z,80
2017-09-11T06:00:04.279Z,80
2017-09-11T06:00:44.850Z,85
2017-09-11T06:01:25.462Z,85
2017-09-11T06:02:06.029Z,85
2017-09-11T06:02:46.637Z,85
2017-09-11T06:03:27.209Z,85
2017-09-11T06:04:07.776Z,85
2017-09-11T06:04:48.380Z,90
2017-09-11T06:05:28.954Z,90
2017-09-11T06:06:09.572Z,90
2017-09-11T06:06:50.145Z,90
2017-09-11T06:07:30.723Z,90
2017-09-11T06:08:11.319Z,90
2017-09-11T06:08:51.875Z,90
2017-09-11T06:09:32.468Z,90
2017-09-11T06:10:13.059Z,90
2017-09-11T06:10:53.638Z,90
2017-09-11T06:11:34.214Z,90
2017-09-11T06:12:14.788Z,90
2017-09-11T06:12:55.356Z,85
2017-09-11T06:13:35.912Z,85
2017-09-11T06:14:16.460Z,85
2017-09-11T06:14:57.024Z,85
2017-09-11T06:15:37.574Z,85
2017-09-11T06:16:18.130Z,85
2017-09-11T06:16:58.729Z,90
2017-09-11T06:17:39.363Z,90
2017-09-11T06:18:19.918Z,90
2017-09-11T06:19:00.505Z,90
2017-09-11T06:19:41.077Z,95
2017-09-11T06:20:21.641Z,95
2017-09-11T06:21:02.201Z,100
2017-09-11T06:21:42.774Z,100
2017-09-11T06:22:23.344Z,100
2017-09-11T06:23:03.944Z,105
2017-09-11T06:23:44.518Z,105
2017-09-11T06:24:25.070Z,110
2017-09-11T06:25:05.640Z,110
2017-09-11T06:25:46.212Z,115
2017-09-11T06:26:26.776Z,115
2017-09-11T06:27:07.361Z,115
2017-09-11T06:27:47.937Z,120
2017-09-11T06:28:28.517Z,120
2017-09-11T06:29:09.098Z,130
2017-09-11T06:29:49.663Z,125
2017-09-11T06:30:30.213Z,130
2017-09-11T06:31:10.829Z,130
2017-09-11T06:31:51.410Z,135
2017-09-11T06:32:31.983Z,135
2017-09-11T06:33:12.548Z,135
2017-09-11T06:33:53.131Z,150
2017-09-11T06:34:33.704Z,470
2017-09-11T06:35:14.286Z,1060
2017-09-11T06:35:54.836Z,1520
2017-09-11T06:36:35.406Z,1700
2017-09-11T06:37:15.970Z,1760
2017-09-11T06:37:56.561Z,1800
2017-09-11T06:38:37.122Z,1805
2017-09-11T06:39:17.694Z,1790
2017-09-11T06:39:58.258Z,1790
2017-09-11T06:40:38.834Z,1845
2017-09-11T06:41:19.425Z,1750
2017-09-11T06:41:59.984Z,1415
2017-09-11T06:42:40.600Z,1745
2017-09-11T06:43:21.196Z,1635
2017-09-11T06:44:01.815Z,1380
2017-09-11T06:44:42.380Z,1650
2017-09-11T06:45:22.948Z,1200
2017-09-11T06:46:03.516Z,1360
2017-09-11T06:46:44.085Z,885
2017-09-11T06:47:24.678Z,720
2017-09-11T06:48:05.319Z,525
2017-09-11T06:48:45.881Z,700
2017-09-11T06:49:26.503Z,950
2017-09-11T06:50:07.081Z,1640
2017-09-11T06:50:47.685Z,1840
2017-09-11T06:51:28.238Z,1705
2017-09-11T06:52:08.816Z,1385
2017-09-11T06:52:49.393Z,1395
2017-09-11T06:53:29.962Z,1225
2017-09-11T06:54:10.578Z,1260
2017-09-11T06:54:51.144Z,660
2017-09-11T06:55:31.714Z,830
2017-09-11T06:56:12.302Z,1135
2017-09-11T06:56:52.896Z,1615
2017-09-11T06:57:33.467Z,1700
2017-09-11T06:58:14.040Z,1680
2017-09-11T06:58:54.606Z,805
2017-09-11T06:59:35.214Z,635
2017-09-11T07:00:15.790Z,500
2017-09-11T07:00:56.375Z,455
2017-09-11T07:01:36.950Z,550
2017-09-11T07:02:17.531Z,1040
2017-09-11T07:02:58.105Z,965
2017-09-11T07:03:38.667Z,1350
2017-09-11T07:04:19.286Z,1665
2017-09-11T07:04:59.968Z,1320
2017-09-11T07:05:40.573Z,1330
2017-09-11T07:06:21.114Z,1365
2017-09-11T07:07:01.702Z,1310
2017-09-11T07:07:42.334Z,730
2017-09-11T07:08:22.926Z,365
2017-09-11T07:09:03.489Z,1100
2017-09-11T07:09:44.067Z,1280
2017-09-11T07:10:24.680Z,1660
2017-09-11T07:11:05.242Z,1465
2017-09-11T07:11:45.830Z,1530
2017-09-11T07:12:26.388Z,940
2017-09-11T07:13:06.963Z,970
2017-09-11T07:13:47.550Z,985
2017-09-11T07:14:28.128Z,1310
2017-09-11T07:15:09.043Z,480
2017-09-11T07:15:49.634Z,785
2017-09-11T07:16:30.696Z,750
2017-09-11T07:17:11.386Z,605
2017-09-11T07:17:51.950Z,1040
2017-09-11T07:18:32.528Z,1090
2017-09-11T07:19:13.097Z,770
2017-09-11T07:19:53.662Z,350
2017-09-11T07:20:34.250Z,185
2017-09-11T07:21:14.831Z,150
2017-09-11T07:21:55.436Z,140
2017-09-11T07:22:36.005Z,140
2017-09-11T07:23:16.625Z,140
2017-09-11T07:23:57.206Z,140
2017-09-11T07:24:37.775Z,165
2017-09-11T07:25:18.340Z,140
2017-09-11T07:25:58.927Z,135
2017-09-11T07:26:39.613Z,140
2017-09-11T07:27:20.196Z,155
2017-09-11T07:28:00.799Z,205
2017-09-11T07:28:41.365Z,260
2017-09-11T07:29:21.940Z,665
2017-09-11T07:30:02.525Z,850
2017-09-11T07:30:43.108Z,740
2017-09-11T07:31:23.685Z,655
2017-09-11T07:32:04.282Z,505
2017-09-11T07:32:44.886Z,200
2017-09-11T07:33:25.532Z,270
2017-09-11T07:34:06.094Z,500
2017-09-11T07:34:46.664Z,1120
2017-09-11T07:35:27.290Z,1420
2017-09-11T07:36:07.991Z,915
2017-09-11T07:36:48.704Z,1355
2017-09-11T07:37:29.278Z,580
2017-09-11T07:38:09.967Z,415
2017-09-11T07:38:50.607Z,255
2017-09-11T07:39:31.180Z,505
2017-09-11T07:40:11.741Z,890
2017-09-11T07:40:52.310Z,945
2017-09-11T07:41:32.921Z,685
2017-09-11T07:42:13.492Z,575
2017-09-11T07:42:54.062Z,340
2017-09-11T07:43:34.639Z,190
2017-09-11T07:44:15.197Z,160
2017-09-11T07:44:55.759Z,160
2017-09-11T07:45:36.335Z,160
2017-09-11T07:46:16.900Z,185
2017-09-11T07:46:57.459Z,190
2017-09-11T07:47:38.032Z,170
2017-09-11T07:48:18.602Z,190
2017-09-11T07:48:59.168Z,225
2017-09-11T07:49:39.759Z,210
2017-09-11T07:50:20.329Z,250
2017-09-11T07:51:00.907Z,270
2017-09-11T07:51:41.529Z,270
2017-09-11T07:52:22.091Z,645
2017-09-11T07:53:02.678Z,520
2017-09-11T07:53:43.267Z,460
2017-09-11T07:54:23.835Z,410
2017-09-11T07:55:04.392Z,285
2017-09-11T07:55:45.003Z,235
2017-09-11T07:56:25.612Z,220
2017-09-11T07:57:06.198Z,205
2017-09-11T07:57:46.781Z,205
2017-09-11T07:58:27.359Z,250
2017-09-11T07:59:07.922Z,295
2017-09-11T07:59:48.484Z,370
2017-09-11T08:00:29.077Z,585
2017-09-11T08:01:09.649Z,635
2017-09-11T08:01:50.212Z,505
2017-09-11T08:02:30.776Z,225
2017-09-11T08:03:11.354Z,170
2017-09-11T08:03:51.922Z,200
2017-09-11T08:04:34.452Z,345
2017-09-11T08:05:14.187Z,215
2017-09-11T08:05:54.580Z,165
2017-09-11T08:06:35.169Z,255
2017-09-11T08:07:15.735Z,180
2017-09-11T08:07:56.301Z,165
2017-09-11T08:08:36.899Z,190
2017-09-11T08:09:17.520Z,290
2017-09-11T08:09:58.115Z,610
2017-09-11T08:10:38.914Z,500
2017-09-11T08:11:19.492Z,245
2017-09-11T08:12:00.102Z,345
2017-09-11T08:12:40.667Z,210
2017-09-11T08:13:21.246Z,195
2017-09-11T08:14:01.879Z,195
2017-09-11T08:14:42.453Z,195
2017-09-11T08:15:23.023Z,215
2017-09-11T08:16:04.196Z,200
2017-09-11T08:16:45.221Z,190
2017-09-11T08:17:25.803Z,180
2017-09-11T08:18:06.414Z,180
2017-09-11T08:18:46.987Z,185
2017-09-11T08:19:27.663Z,190
2017-09-11T08:20:08.261Z,225
2017-09-11T08:20:48.889Z,230
2017-09-11T08:21:29.474Z,220
2017-09-11T08:22:10.062Z,180
2017-09-11T08:22:50.702Z,185
2017-09-11T08:23:31.288Z,185
2017-09-11T08:24:11.898Z,165
2017-09-11T08:24:52.470Z,155
2017-09-11T08:25:33.261Z,155
2017-09-11T08:26:13.853Z,155
2017-09-11T08:26:54.426Z,155
2017-09-11T08:27:35.005Z,155
2017-09-11T08:28:15.618Z,145
2017-09-11T08:28:56.250Z,140
2017-09-11T08:29:39.626Z,135
2017-09-11T08:30:20.336Z,130
2017-09-11T08:31:01.480Z,140
2017-09-11T08:31:42.116Z,145
2017-09-11T08:32:22.723Z,150
2017-09-11T08:33:03.352Z,140
2017-09-11T08:33:43.894Z,150
2017-09-11T08:34:24.510Z,165
2017-09-11T08:35:05.061Z,145
2017-09-11T08:35:45.947Z,145
2017-09-11T08:36:26.556Z,145
2017-09-11T08:37:07.146Z,140
2017-09-11T08:37:47.760Z,140
2017-09-11T08:38:28.327Z,135
2017-09-11T08:39:08.903Z,140
2017-09-11T08:39:49.480Z,140
2017-09-11T08:40:30.071Z,135
2017-09-11T08:41:10.666Z,135
2017-09-11T08:41:51.420Z,135
2017-09-11T08:42:31.992Z,150
2017-09-11T08:43:12.627Z,155
2017-09-11T08:43:53.214Z,140
2017-09-11T08:44:33.785Z,145
2017-09-11T08:45:14.357Z,135
2017-09-11T08:45:54.949Z,135
2017-09-11T08:46:35.560Z,130
2017-09-11T08:47:16.137Z,125
2017-09-11T08:47:56.722Z,120
2017-09-11T08:48:37.323Z,120
2017-09-11T08:49:17.919Z,115
2017-09-11T08:49:58.561Z,115
2017-09-11T08:50:39.163Z,110
2017-09-11T08:51:19.776Z,110
2017-09-11T08:52:00.366Z,110
2017-09-11T08:52:40.954Z,105
2017-09-11T08:53:21.594Z,105
2017-09-11T08:54:02.185Z,105
2017-09-11T08:54:42.756Z,100
2017-09-11T08:55:23.348Z,100
2017-09-11T08:56:03.923Z,100
2017-09-11T08:56:44.509Z,100
2017-09-11T08:57:25.361Z,100
2017-09-11T08:58:05.936Z,100
2017-09-11T08:58:46.534Z,100
2017-09-11T08:59:27.106Z,105
2017-09-11T09:00:07.685Z,100
2017-09-11T09:00:48.274Z,100
2017-09-11T09:01:28.857Z,105
2017-09-11T09:02:09.429Z,100
2017-09-11T09:02:50.030Z,100
2017-09-11T09:03:30.754Z,100
2017-09-11T09:04:11.326Z,100
2017-09-11T09:04:51.895Z,100
2017-09-11T09:05:32.867Z,100
2017-09-11T09:06:13.410Z,100
2017-09-11T09:06:54.025Z,100
2017-09-11T09:07:34.611Z,95
2017-09-11T09:08:15.243Z,100
2017-09-11T09:08:56.044Z,100
2017-09-11T09:09:36.643Z,100
2017-09-11T09:10:17.224Z,105
2017-09-11T09:10:57.837Z,105
2017-09-11T09:11:38.597Z,110
2017-09-11T09:12:19.360Z,120
2017-09-11T09:12:59.967Z,115
2017-09-11T09:13:40.630Z,120
2017-09-11T09:14:21.273Z,125
2017-09-11T09:15:01.866Z,125
2017-09-11T09:15:42.489Z,120
2017-09-11T09:16:23.035Z,120
2017-09-11T09:17:03.615Z,120
2017-09-11T09:17:44.175Z,120
2017-09-11T09:18:24.787Z,120
2017-09-11T09:19:05.378Z,120
2017-09-11T09:19:45.944Z,120
2017-09-11T09:20:26.505Z,120
2017-09-11T09:21:07.075Z,125
2017-09-11T09:21:47.750Z,125
2017-09-11T09:22:28.557Z,125
2017-09-11T09:23:09.120Z,125
2017-09-11T09:23:49.699Z,125
2017-09-11T09:24:30.278Z,125
2017-09-11T09:25:10.860Z,125
2017-09-11T09:25:51.525Z,125
2017-09-11T09:26:32.114Z,125
2017-09-11T09:27:12.713Z,130
2017-09-11T09:27:53.288Z,130
2017-09-11T09:28:33.854Z,130
2017-09-11T09:29:14.490Z,135
2017-09-11T09:29:55.086Z,135
2017-09-11T09:30:35.664Z,140
2017-09-11T09:31:16.257Z,140
2017-09-11T09:31:56.884Z,140
2017-09-11T09:32:37.484Z,140
2017-09-11T09:33:18.033Z,135
2017-09-11T09:33:58.622Z,135
2017-09-11T09:34:39.220Z,135
2017-09-11T09:35:19.794Z,135
2017-09-11T09:36:00.445Z,140
2017-09-11T09:36:41.046Z,140
2017-09-11T09:37:21.627Z,140
2017-09-11T09:38:02.193Z,140
2017-09-11T09:38:42.786Z,145
2017-09-11T09:39:23.367Z,140
2017-09-11T09:40:03.936Z,140
2017-09-11T09:40:44.504Z,145
2017-09-11T09:41:25.074Z,150
2017-09-11T09:42:05.686Z,160
2017-09-11T09:42:46.394Z,160